Time;durP1;ratioP1;P1;durP2;ratioP2;P2;SDS_P1;SDS_P2;PMS_P1;PMS_P2;Temp;Humidity;BMP_temperature;BMP_pressure;BME280_temperature;BME280_humidity;BME280_pressure;Samples;Min_cycle;Max_cycle;Signal;HPM_P1;HPM_P2
2021/12/04 00:00:21;;;;;;;11.38;7.13;;;-3.40;99.90;;;;;;5050795;28;20165;-76
2021/12/04 00:02:48;;;;;;;12.82;7.63;;;-3.40;99.90;;;;;;5032436;28;20255;-77
2021/12/04 00:05:15;;;;;;;9.73;6.68;;;-3.30;99.90;;;;;;5032860;28;20177;-77
2021/12/04 00:07:40;;;;;;;12.50;7.00;;;-3.30;99.90;;;;;;5050312;28;20203;-78
2021/12/04 00:10:07;;;;;;;7.75;5.22;;;-3.30;99.90;;;;;;5050311;28;20161;-77
2021/12/04 00:12:34;;;;;;;17.95;7.35;;;-3.50;99.90;;;;;;5050734;28;20149;-77
2021/12/04 00:15:02;;;;;;;13.55;7.65;;;-3.50;99.90;;;;;;5050560;28;20166;-77
2021/12/04 00:17:28;;;;;;;14.63;7.10;;;-3.60;99.90;;;;;;5050646;28;20227;-77
2021/12/04 00:19:57;;;;;;;14.63;7.72;;;-3.60;99.90;;;;;;5050499;28;20158;-76
2021/12/04 00:22:23;;;;;;;8.93;6.18;;;-3.40;99.90;;;;;;5033277;28;20173;-76
2021/12/04 00:24:49;;;;;;;11.07;6.88;;;-3.60;99.90;;;;;;5050849;28;20161;-76
2021/12/04 00:27:15;;;;;;;8.45;5.93;;;-3.50;99.90;;;;;;5033092;28;20197;-77
2021/12/04 00:29:41;;;;;;;11.20;7.90;;;-3.50;99.90;;;;;;5050552;28;20208;-77
2021/12/04 00:35:18;;;;;;;12.73;4.65;;;-3.50;99.90;;;;;;5009337;28;20684;-76
2021/12/04 00:38:16;;;;;;;7.40;4.80;;;-3.40;99.90;;;;;;5009340;28;20224;-77
2021/12/04 00:51:31;;;;;;;15.68;8.13;;;-3.20;99.90;;;;;;5008897;28;20230;-76
2021/12/04 00:53:57;;;;;;;17.88;6.82;;;-3.20;99.90;;;;;;5009280;28;20238;-77
2021/12/04 00:56:24;;;;;;;17.38;7.72;;;-3.20;99.90;;;;;;5027456;28;20233;-76
2021/12/04 00:58:52;;;;;;;17.58;7.32;;;-3.20;99.90;;;;;;5048264;28;20197;-78
2021/12/04 01:01:21;;;;;;;16.17;7.47;;;-3.20;99.90;;;;;;5048337;28;20169;-76
2021/12/04 01:03:47;;;;;;;14.27;7.13;;;-3.20;99.90;;;;;;5048283;28;20571;-78
2021/12/04 01:06:13;;;;;;;11.98;7.22;;;-3.30;99.90;;;;;;5031851;28;20203;-77
2021/12/04 01:08:39;;;;;;;11.40;6.93;;;-3.30;99.90;;;;;;5055263;28;20216;-76
2021/12/04 01:11:06;;;;;;;12.00;6.32;;;-3.40;99.90;;;;;;5070106;28;20187;-77
2021/12/04 01:13:33;;;;;;;19.02;7.63;;;-3.40;99.90;;;;;;5070218;28;20660;-76
2021/12/04 01:15:59;;;;;;;18.42;6.88;;;-3.50;99.90;;;;;;5070343;28;20218;-76
2021/12/04 01:18:25;;;;;;;11.57;6.15;;;-3.40;99.90;;;;;;5068622;28;20172;-77
2021/12/04 01:20:51;;;;;;;10.30;5.90;;;-3.40;99.90;;;;;;5069428;28;20239;-76
2021/12/04 01:23:17;;;;;;;12.48;5.60;;;-3.40;99.90;;;;;;5068093;28;20191;-77
2021/12/04 01:25:45;;;;;;;11.80;7.20;;;-3.40;99.90;;;;;;5067799;28;20181;-77
2021/12/04 01:28:11;;;;;;;8.98;5.97;;;-3.30;99.90;;;;;;5067859;28;20169;-76
2021/12/04 01:30:37;;;;;;;8.68;5.82;;;-3.50;99.90;;;;;;5069401;28;20221;-76
2021/12/04 01:33:04;;;;;;;13.23;6.78;;;-3.50;99.90;;;;;;5069506;28;20196;-77
2021/12/04 01:35:30;;;;;;;7.97;5.45;;;-3.70;99.90;;;;;;5069276;28;20216;-76
2021/12/04 01:37:56;;;;;;;8.88;5.38;;;-3.80;99.90;;;;;;5069489;28;20240;-76
2021/12/04 01:40:22;;;;;;;8.80;5.43;;;-3.90;99.90;;;;;;5068121;28;20181;-76
2021/12/04 01:42:48;;;;;;;10.63;5.10;;;-3.80;99.90;;;;;;5067888;28;20169;-77
2021/12/04 01:45:16;;;;;;;11.23;5.85;;;-3.90;99.90;;;;;;5069090;28;20156;-76
2021/12/04 01:47:42;;;;;;;9.52;5.75;;;-4.00;99.90;;;;;;5067975;28;20287;-76
2021/12/04 01:50:09;;;;;;;8.00;5.00;;;-4.00;99.90;;;;;;5069280;28;20217;-76
2021/12/04 01:52:35;;;;;;;7.43;4.40;;;-4.00;99.90;;;;;;5068112;28;20173;-76
2021/12/04 01:55:03;;;;;;;8.32;4.70;;;-4.00;99.90;;;;;;5067985;28;20285;-77
2021/12/04 01:57:30;;;;;;;18.77;5.35;;;-4.00;99.90;;;;;;5050035;28;20221;-76
2021/12/04 01:59:56;;;;;;;9.38;6.22;;;-4.00;99.90;;;;;;5050738;28;20162;-76
2021/12/04 02:02:22;;;;;;;9.20;5.55;;;-4.00;99.90;;;;;;5052562;28;20245;-76
2021/12/04 02:04:49;;;;;;;6.97;5.32;;;-4.00;99.90;;;;;;5052331;28;20201;-76
2021/12/04 02:07:19;;;;;;;6.57;5.15;;;-4.10;99.90;;;;;;5034574;28;20201;-76
2021/12/04 02:09:45;;;;;;;9.02;5.07;;;-4.10;99.90;;;;;;5034389;28;20264;-76
2021/12/04 02:12:11;;;;;;;6.53;4.75;;;-4.00;99.90;;;;;;5052280;28;20157;-76
2021/12/04 02:14:41;;;;;;;8.82;4.80;;;-4.00;99.90;;;;;;5052148;28;21049;-76
2021/12/04 02:17:07;;;;;;;11.68;5.15;;;-4.00;99.90;;;;;;5051928;28;20207;-76
2021/12/04 02:19:34;;;;;;;9.90;5.18;;;-4.00;99.90;;;;;;5034264;28;20264;-76
2021/12/04 02:22:00;;;;;;;6.93;4.68;;;-4.10;99.90;;;;;;5052068;28;20168;-76
2021/12/04 02:24:26;;;;;;;13.05;5.63;;;-4.00;99.90;;;;;;5034035;28;20169;-76
2021/12/04 02:26:52;;;;;;;8.30;4.82;;;-4.00;99.90;;;;;;5051835;28;20251;-76
2021/12/04 02:29:19;;;;;;;8.40;4.75;;;-3.90;99.90;;;;;;5033953;28;20189;-76
2021/12/04 02:31:50;;;;;;;10.98;5.35;;;-3.90;99.90;;;;;;5033983;28;20170;-76
2021/12/04 02:34:25;;;;;;;9.32;5.07;;;-3.80;99.90;;;;;;5033848;28;20251;-76
2021/12/04 02:36:51;;;;;;;6.20;4.88;;;-3.70;99.90;;;;;;5051553;28;20201;-76
2021/12/04 02:39:27;;;;;;;10.15;6.03;;;-3.70;99.90;;;;;;5051708;28;20181;-76
2021/12/04 02:41:54;;;;;;;6.63;4.32;;;-3.70;99.90;;;;;;5033664;28;20192;-76
2021/12/04 02:44:23;;;;;;;7.07;5.70;;;-3.80;99.90;;;;;;5051295;28;20161;-76
2021/12/04 02:46:50;;;;;;;7.05;5.13;;;-3.70;99.90;;;;;;5051246;28;20670;-75
2021/12/04 02:49:16;;;;;;;7.00;5.10;;;-3.70;99.90;;;;;;5051276;28;20161;-76
2021/12/04 02:51:42;;;;;;;11.68;5.68;;;-3.80;99.90;;;;;;5033612;28;20596;-76
2021/12/04 02:54:11;;;;;;;9.00;5.20;;;-3.80;99.90;;;;;;5033331;28;20174;-76
2021/12/04 02:56:37;;;;;;;8.32;5.50;;;-3.90;99.90;;;;;;5050088;28;20236;-76
2021/12/04 02:59:04;;;;;;;10.05;4.68;;;-3.90;99.90;;;;;;5050824;28;20527;-76
2021/12/04 03:01:30;;;;;;;7.82;4.82;;;-3.80;99.90;;;;;;5050932;28;20150;-76
2021/12/04 03:04:12;;;;;;;6.47;4.78;;;-3.80;99.90;;;;;;5050943;28;20184;-77
2021/12/04 03:06:39;;;;;;;7.95;4.57;;;-3.70;99.90;;;;;;5032854;28;20223;-76
2021/12/04 03:09:05;;;;;;;13.75;5.00;;;-3.70;99.90;;;;;;5050934;28;20237;-76
2021/12/04 03:11:31;;;;;;;10.07;5.95;;;-3.80;99.90;;;;;;5050699;28;20158;-76
2021/12/04 03:13:57;;;;;;;8.48;5.00;;;-3.70;99.90;;;;;;5050888;28;20170;-76
2021/12/04 03:16:24;;;;;;;13.15;6.60;;;-3.70;99.90;;;;;;5050670;28;20208;-76
2021/12/04 03:18:50;;;;;;;8.52;4.93;;;-3.70;99.90;;;;;;5050757;28;20165;-76
2021/12/04 03:21:16;;;;;;;13.15;5.63;;;-3.80;99.90;;;;;;5032827;28;20165;-76
2021/12/04 03:23:52;;;;;;;11.77;5.40;;;-3.80;99.90;;;;;;5032849;28;20170;-77
2021/12/04 03:26:20;;;;;;;8.15;5.40;;;-3.80;99.90;;;;;;5050516;28;20200;-76
2021/12/04 03:28:46;;;;;;;10.10;4.55;;;-3.80;99.90;;;;;;5050596;28;20165;-76
2021/12/04 03:31:18;;;;;;;9.23;5.13;;;-3.80;99.90;;;;;;5032796;28;20179;-76
2021/12/04 03:41:56;;;;;;;11.50;5.20;;;-3.60;99.90;;;;;;5050154;28;20165;-76
2021/12/04 03:44:22;;;;;;;6.15;4.50;;;-3.60;99.90;;;;;;5050217;28;20165;-76
2021/12/04 03:46:48;;;;;;;7.47;5.50;;;-3.60;99.90;;;;;;5032396;28;20197;-76
2021/12/04 03:49:15;;;;;;;10.88;4.65;;;-3.60;99.90;;;;;;5032412;28;20183;-76
2021/12/04 03:51:41;;;;;;;13.32;5.22;;;-3.60;99.90;;;;;;5050078;28;20188;-77
2021/12/04 03:54:07;;;;;;;7.82;5.35;;;-3.50;99.90;;;;;;5032376;28;20188;-76
2021/12/04 03:56:33;;;;;;;9.93;4.10;;;-3.50;99.90;;;;;;5049671;28;20217;-76
2021/12/04 03:58:59;;;;;;;18.77;5.78;;;-3.50;99.90;;;;;;5049539;28;20161;-76
2021/12/04 04:01:24;;;;;;;7.85;4.47;;;-3.50;99.90;;;;;;5031948;28;20268;-76
2021/12/04 04:03:50;;;;;;;7.57;4.05;;;-3.50;99.90;;;;;;5047521;28;20177;-76
2021/12/04 04:06:17;;;;;;;13.18;4.82;;;-3.50;99.90;;;;;;5047366;28;20197;-76
2021/12/04 04:08:42;;;;;;;5.68;4.30;;;-3.50;99.90;;;;;;5049495;28;20187;-76
2021/12/04 04:11:08;;;;;;;8.00;5.18;;;-3.50;99.90;;;;;;5031828;28;20174;-76
2021/12/04 04:13:36;;;;;;;9.05;5.35;;;-3.50;99.90;;;;;;5049360;28;20165;-76
2021/12/04 04:16:03;;;;;;;5.40;4.65;;;-3.50;99.90;;;;;;5049350;28;20193;-76
2021/12/04 04:18:31;;;;;;;7.13;4.72;;;-3.60;99.90;;;;;;5031628;28;20173;-76
2021/12/04 04:20:57;;;;;;;8.27;4.88;;;-3.60;99.90;;;;;;5049552;28;20160;-76
2021/12/04 04:23:23;;;;;;;8.10;4.13;;;-3.50;99.90;;;;;;5048909;28;20177;-76
2021/12/04 04:25:49;;;;;;;7.30;4.82;;;-3.50;99.90;;;;;;5031661;28;20169;-76
2021/12/04 04:28:15;;;;;;;7.22;3.63;;;-3.40;99.90;;;;;;5049250;28;20157;-76
2021/12/04 04:30:41;;;;;;;3.83;2.83;;;-3.50;99.90;;;;;;5031417;28;20180;-76
2021/12/04 04:33:11;;;;;;;3.78;2.83;;;-3.40;99.90;;;;;;5031720;28;20173;-76
2021/12/04 04:35:37;;;;;;;5.40;3.13;;;-3.40;99.90;;;;;;5049282;28;20213;-76
2021/12/04 04:59:52;;;;;;;8.38;3.45;;;-3.20;99.90;;;;;;5048958;28;20232;-77
2021/12/04 05:02:33;;;;;;;6.25;3.03;;;-3.20;99.90;;;;;;5048975;28;20150;-77
2021/12/04 05:13:06;;;;;;;4.63;3.00;;;-3.20;99.90;;;;;;5029144;28;20240;-76
2021/12/04 05:15:43;;;;;;;14.40;4.13;;;-3.20;99.90;;;;;;5028925;28;20159;-77
2021/12/04 05:21:03;;;;;;;4.53;3.53;;;-3.30;99.90;;;;;;5029085;28;20151;-76
2021/12/04 05:23:37;;;;;;;5.50;3.75;;;-3.20;99.90;;;;;;5011282;28;20166;-77
2021/12/04 05:26:06;;;;;;;6.30;3.42;;;-3.20;99.90;;;;;;5028911;28;20212;-76
2021/12/04 05:28:33;;;;;;;4.57;3.45;;;-3.10;99.90;;;;;;5011329;28;20202;-76
2021/12/04 05:30:59;;;;;;;4.47;2.90;;;-3.10;99.90;;;;;;5028908;28;20166;-77
2021/12/04 05:33:25;;;;;;;4.30;2.85;;;-2.90;99.90;;;;;;5029932;28;20504;-77
2021/12/04 05:35:52;;;;;;;5.55;3.20;;;-2.80;99.90;;;;;;5015011;28;20197;-77
2021/12/04 05:38:19;;;;;;;6.78;2.90;;;-2.80;99.90;;;;;;5015064;28;20181;-77
2021/12/04 05:40:46;;;;;;;2.35;2.15;;;-2.70;99.90;;;;;;5015125;28;20169;-77
2021/12/04 05:43:12;;;;;;;3.60;2.35;;;-2.70;99.90;;;;;;5014718;28;20196;-77
2021/12/04 05:45:50;;;;;;;4.72;2.60;;;-2.70;99.90;;;;;;5032476;28;20164;-77
2021/12/04 05:48:23;;;;;;;4.82;2.42;;;-2.70;99.90;;;;;;5014823;28;20188;-76
2021/12/04 05:51:30;;;;;;;3.08;1.85;;;-2.40;99.90;;;;;;5032315;28;20159;-76
2021/12/04 05:54:06;;;;;;;3.22;1.80;;;-2.40;99.90;;;;;;5030240;28;20186;-76
2021/12/04 05:56:31;;;;;;;3.42;2.38;;;-2.50;99.90;;;;;;5031367;28;20236;-77
2021/12/04 05:58:58;;;;;;;6.82;4.03;;;-2.50;99.90;;;;;;5014805;28;20174;-76
2021/12/04 06:01:26;;;;;;;5.18;2.40;;;-2.50;99.90;;;;;;5032358;28;20253;-76
2021/12/04 06:03:52;;;;;;;2.60;1.75;;;-2.50;99.90;;;;;;5032370;28;20222;-77
2021/12/04 06:06:19;;;;;;;11.57;3.03;;;-2.50;99.90;;;;;;5047675;28;20204;-77
2021/12/04 06:08:46;;;;;;;7.60;3.45;;;-2.40;99.90;;;;;;5052041;28;20177;-76
2021/12/04 06:11:12;;;;;;;4.15;3.35;;;-2.50;99.90;;;;;;5034339;28;20177;-76
2021/12/04 06:13:38;;;;;;;6.03;3.97;;;-2.50;99.90;;;;;;5052081;28;20168;-76
2021/12/04 06:16:04;;;;;;;4.55;3.28;;;-2.60;99.90;;;;;;5051828;28;20189;-76
2021/12/04 06:18:32;;;;;;;7.85;3.25;;;-2.70;99.90;;;;;;5051980;28;20160;-76
2021/12/04 06:23:43;;;;;;;5.75;3.25;;;-2.90;99.90;;;;;;5051988;28;20164;-76
2021/12/04 06:26:10;;;;;;;8.65;3.85;;;-3.00;99.90;;;;;;5051793;28;20193;-76
2021/12/04 06:28:36;;;;;;;5.35;3.83;;;-3.00;99.90;;;;;;5033719;28;20176;-76
2021/12/04 06:31:03;;;;;;;10.63;3.47;;;-3.00;99.90;;;;;;5051562;28;20174;-77
2021/12/04 06:33:29;;;;;;;6.25;4.10;;;-3.00;99.90;;;;;;5051636;28;20241;-77
2021/12/04 06:35:56;;;;;;;9.68;4.43;;;-2.90;99.90;;;;;;5051300;28;20196;-77
2021/12/04 06:38:22;;;;;;;8.35;4.13;;;-2.90;99.90;;;;;;5033649;28;20177;-77
2021/12/04 06:40:48;;;;;;;5.15;3.70;;;-3.00;99.90;;;;;;5051289;28;20165;-78
2021/12/04 06:43:15;;;;;;;7.53;3.65;;;-3.00;99.90;;;;;;5051338;28;20154;-76
2021/12/04 06:45:43;;;;;;;13.30;4.20;;;-3.20;99.90;;;;;;5050730;28;20177;-77
2021/12/04 06:48:13;;;;;;;6.88;4.43;;;-3.20;99.90;;;;;;5051229;28;20258;-77
2021/12/04 06:55:57;;;;;;;5.10;3.63;;;-2.90;99.90;;;;;;5050858;28;20223;-76
2021/12/04 06:58:25;;;;;;;8.75;4.03;;;-2.90;99.90;;;;;;5033075;28;20177;-76
2021/12/04 07:00:52;;;;;;;9.77;4.78;;;-2.90;99.90;;;;;;5033082;28;20253;-76
2021/12/04 07:03:19;;;;;;;10.02;4.30;;;-2.80;99.90;;;;;;5050886;28;20164;-76
2021/12/04 07:05:46;;;;;;;9.05;4.93;;;-2.80;99.90;;;;;;5050833;28;20176;-77
2021/12/04 07:08:12;;;;;;;10.93;3.88;;;-2.70;99.90;;;;;;5049224;28;20185;-76
2021/12/04 07:10:40;;;;;;;6.55;3.72;;;-2.70;99.90;;;;;;5050520;28;20208;-76
2021/12/04 07:13:06;;;;;;;6.50;4.03;;;-2.60;99.90;;;;;;5050954;28;20166;-76
2021/12/04 07:15:33;;;;;;;8.82;4.43;;;-2.60;99.90;;;;;;5032951;28;20284;-76
2021/12/04 07:18:01;;;;;;;5.72;4.43;;;-2.60;99.90;;;;;;5050646;28;20260;-76
2021/12/04 07:20:28;;;;;;;5.35;3.80;;;-2.50;99.90;;;;;;5050677;28;20591;-77
2021/12/04 07:22:54;;;;;;;7.72;4.20;;;-2.30;99.90;;;;;;5032739;28;20264;-77
2021/12/04 07:25:20;;;;;;;6.95;4.47;;;-2.20;99.90;;;;;;5050609;28;20181;-76
2021/12/04 07:27:47;;;;;;;5.55;4.28;;;-2.10;99.90;;;;;;5050559;28;20197;-76
2021/12/04 07:30:14;;;;;;;6.75;4.63;;;-2.10;99.90;;;;;;5050410;28;20201;-76
2021/12/04 07:32:40;;;;;;;8.82;4.90;;;-2.10;99.90;;;;;;5032756;28;20201;-76
2021/12/04 07:35:06;;;;;;;8.70;5.00;;;-1.90;99.90;;;;;;5050399;28;20158;-76
2021/12/04 07:37:33;;;;;;;9.50;4.85;;;-1.90;99.90;;;;;;5032518;28;20263;-76
2021/12/04 07:39:59;;;;;;;7.95;5.72;;;-1.90;99.90;;;;;;5050320;28;20169;-76
2021/12/04 07:42:25;;;;;;;9.75;6.05;;;-1.90;99.90;;;;;;5031564;28;20181;-76
2021/12/04 07:44:51;;;;;;;9.50;5.13;;;-1.90;99.90;;;;;;5049620;28;20189;-76
2021/12/04 07:47:17;;;;;;;9.57;5.30;;;-1.90;99.90;;;;;;5031644;28;20243;-76
2021/12/04 07:49:43;;;;;;;9.50;6.47;;;-1.90;99.90;;;;;;5031996;28;20181;-76
2021/12/04 07:52:10;;;;;;;10.35;6.13;;;-1.70;99.90;;;;;;5049422;28;20187;-77
2021/12/04 07:54:37;;;;;;;10.00;5.95;;;-1.70;99.90;;;;;;5049453;28;20158;-76
2021/12/04 07:57:04;;;;;;;8.48;5.75;;;-1.50;99.90;;;;;;5057323;28;20232;-77
2021/12/04 07:59:30;;;;;;;10.50;5.80;;;-1.40;99.90;;;;;;5070087;28;20165;-76
2021/12/04 08:01:57;;;;;;;10.65;4.82;;;-1.30;99.90;;;;;;5068560;28;20229;-76
2021/12/04 08:04:23;;;;;;;9.45;5.93;;;-1.20;99.90;;;;;;5070234;28;20157;-76
2021/12/04 08:06:50;;;;;;;6.80;5.38;;;-1.10;99.90;;;;;;5068822;28;20203;-76
2021/12/04 08:09:17;;;;;;;10.07;5.57;;;-1.10;99.90;;;;;;5068756;28;20190;-76
2021/12/04 08:11:43;;;;;;;10.75;6.18;;;-0.80;99.90;;;;;;5070021;28;20168;-77
2021/12/04 08:14:09;;;;;;;11.85;6.05;;;-0.70;99.90;;;;;;5070136;28;20165;-77
2021/12/04 08:16:35;;;;;;;9.80;5.80;;;-0.60;99.90;;;;;;5068632;28;20227;-76
2021/12/04 08:19:01;;;;;;;10.65;6.00;;;-0.50;99.90;;;;;;5069919;28;20156;-76
2021/12/04 08:21:27;;;;;;;10.63;6.22;;;-0.30;99.90;;;;;;5069931;28;20153;-76
2021/12/04 08:23:53;;;;;;;8.57;5.13;;;-0.10;99.90;;;;;;5068293;28;20165;-76
2021/12/04 08:26:20;;;;;;;11.70;5.95;;;0.30;99.90;;;;;;5068254;28;20196;-76
2021/12/04 08:28:46;;;;;;;9.27;5.80;;;0.50;99.90;;;;;;5069575;28;20191;-76
2021/12/04 08:31:12;;;;;;;8.15;6.28;;;0.70;99.90;;;;;;5069386;28;20191;-76
2021/12/04 08:33:38;;;;;;;11.45;6.97;;;0.80;99.90;;;;;;5069363;28;20161;-76
2021/12/04 08:36:05;;;;;;;13.30;6.18;;;1.10;99.90;;;;;;5067670;28;20207;-76
2021/12/04 08:38:33;;;;;;;11.02;6.63;;;1.30;99.90;;;;;;5068121;28;20165;-76
2021/12/04 08:41:02;;;;;;;10.15;6.07;;;1.30;99.90;;;;;;5067857;28;20168;-76
2021/12/04 08:43:28;;;;;;;7.07;4.93;;;1.30;99.90;;;;;;5068484;28;20180;-77
2021/12/04 08:45:55;;;;;;;8.65;5.07;;;1.30;99.90;;;;;;5068992;28;20233;-77
2021/12/04 08:48:22;;;;;;;6.60;4.28;;;1.40;99.90;;;;;;5052614;28;20192;-77
2021/12/04 08:50:48;;;;;;;10.55;4.82;;;1.40;99.90;;;;;;5047744;28;20161;-77
2021/12/04 08:53:14;;;;;;;7.72;4.50;;;1.50;99.90;;;;;;5049318;28;20165;-77
2021/12/04 08:55:43;;;;;;;7.80;4.30;;;1.70;99.90;;;;;;5048741;28;20217;-76
2021/12/04 08:58:10;;;;;;;8.57;4.65;;;2.00;99.90;;;;;;5049088;28;20275;-76
2021/12/04 09:01:01;;;;;;;7.68;5.03;;;2.40;99.90;;;;;;5049061;28;20154;-76
2021/12/04 09:03:31;;;;;;;8.48;4.57;;;2.90;99.90;;;;;;5048906;28;20245;-76
2021/12/04 09:05:59;;;;;;;9.52;4.50;;;3.50;99.90;;;;;;5061776;28;20196;-77
2021/12/04 09:08:26;;;;;;;8.63;4.68;;;3.20;99.90;;;;;;5062637;28;20240;-77
2021/12/04 09:10:55;;;;;;;9.32;4.95;;;3.20;99.90;;;;;;5047621;28;20172;-77
2021/12/04 09:13:22;;;;;;;4.90;3.50;;;3.20;99.90;;;;;;5047736;28;20161;-78
2021/12/04 09:15:49;;;;;;;11.70;3.85;;;3.20;99.90;;;;;;5047590;28;20197;-78
2021/12/04 09:18:15;;;;;;;5.30;3.70;;;2.90;99.90;;;;;;5047513;28;20314;-79
2021/12/04 09:20:41;;;;;;;10.25;3.83;;;2.90;99.90;;;;;;5048880;28;20162;-79
2021/12/04 09:23:14;;;;;;;4.72;3.15;;;3.00;99.90;;;;;;5047559;28;20172;-79
2021/12/04 09:25:45;;;;;;;5.30;3.25;;;3.20;99.90;;;;;;5048724;28;20216;-80
2021/12/04 09:28:21;;;;;;;8.52;3.95;;;2.90;99.90;;;;;;5047578;28;20165;-80
2021/12/04 10:00:27;;;;;;;4.80;2.85;;;1.90;99.90;;;;;;5048311;28;20169;-79
2021/12/04 10:03:12;;;;;;;4.65;2.50;;;2.20;99.90;;;;;;5030524;28;20169;-79
2021/12/04 10:11:59;;;;;;;3.97;2.55;;;2.80;99.90;;;;;;5017125;28;20177;-79
2021/12/04 10:33:45;;;;;;;5.45;2.72;;;5.20;99.90;;;;;;5051436;28;20169;-80
2021/12/04 10:36:12;;;;;;;4.00;2.70;;;5.10;99.90;;;;;;5033414;28;20255;-80
2021/12/04 10:38:43;;;;;;;5.23;3.30;;;5.40;99.90;;;;;;5033068;28;20500;-79
2021/12/04 10:41:11;;;;;;;8.82;3.20;;;5.60;99.90;;;;;;5051393;28;20179;-79
2021/12/04 10:43:37;;;;;;;7.45;3.28;;;5.60;99.90;;;;;;5033423;28;20169;-79
2021/12/04 10:46:13;;;;;;;9.75;3.05;;;4.90;99.90;;;;;;5051125;28;20692;-79
2021/12/04 10:48:47;;;;;;;5.53;3.28;;;4.90;99.90;;;;;;5033326;28;20267;-79
2021/12/04 10:51:32;;;;;;;4.70;2.63;;;4.80;99.90;;;;;;5033179;28;20173;-79
2021/12/04 10:54:04;;;;;;;7.68;3.22;;;4.70;99.90;;;;;;5050918;28;20241;-79
2021/12/04 10:57:00;;;;;;;5.43;3.03;;;5.20;99.90;;;;;;5050115;28;20243;-80
2021/12/04 11:00:04;;;;;;;3.65;2.70;;;5.90;99.90;;;;;;5071014;28;20552;-80
2021/12/04 11:02:28;;;;;;;7.78;2.65;;;6.50;99.90;;;;;;5070252;28;20181;-79
2021/12/04 11:05:13;;;;;;;3.22;2.60;;;6.90;99.90;;;;;;5069317;28;20164;-79
2021/12/04 11:25:39;;;;;;;2.97;2.25;;;5.70;99.90;;;;;;5050444;28;20184;-79
2021/12/04 11:28:29;;;;;;;7.72;2.78;;;4.70;99.90;;;;;;5049073;28;20201;-80
2021/12/04 11:42:06;;;;;;;5.85;3.47;;;6.80;99.90;;;;;;5070307;28;20539;-79
2021/12/04 11:44:47;;;;;;;6.47;3.08;;;5.70;99.90;;;;;;5069091;28;20165;-78
2021/12/04 11:47:14;;;;;;;5.05;3.13;;;4.90;99.90;;;;;;5070342;28;20538;-79
2021/12/04 11:49:41;;;;;;;4.68;3.10;;;4.50;99.90;;;;;;5069975;28;20192;-79
2021/12/04 11:52:17;;;;;;;6.10;3.15;;;4.40;99.90;;;;;;5060981;28;20171;-75
2021/12/04 11:54:47;;;;;;;5.60;2.80;;;4.50;99.90;;;;;;5067042;28;20637;-78
2021/12/04 11:57:27;;;;;;;4.38;2.88;;;3.70;99.90;;;;;;5068324;28;20228;-77
2021/12/04 12:00:06;;;;;;;5.20;3.20;;;3.50;99.90;;;;;;5069617;28;20208;-78
2021/12/04 12:02:33;;;;;;;5.07;3.15;;;3.50;99.90;;;;;;5068456;28;20210;-77
2021/12/04 12:04:59;;;;;;;4.40;2.72;;;3.40;99.90;;;;;;5068484;28;20180;-79
2021/12/04 12:07:28;;;;;;;4.10;2.67;;;3.20;99.90;;;;;;5068455;28;20169;-79
2021/12/04 12:10:12;;;;;;;6.95;3.63;;;3.30;99.90;;;;;;5063500;28;20196;-79
2021/12/04 12:12:42;;;;;;;7.53;4.43;;;3.80;99.90;;;;;;5068494;28;20648;-79
2021/12/04 12:15:34;;;;;;;7.38;3.28;;;4.50;99.90;;;;;;5060741;28;20193;-76
2021/12/04 12:18:15;;;;;;;15.50;6.75;;;5.50;99.90;;;;;;5063902;28;20185;-76
2021/12/04 12:20:56;;;;;;;7.03;2.95;;;5.60;99.90;;;;;;5068283;28;20196;-80
2021/12/04 12:23:26;;;;;;;8.82;3.65;;;5.50;99.90;;;;;;5050521;28;20471;-78
2021/12/04 12:31:52;;;;;;;4.68;2.70;;;3.80;99.90;;;;;;5069418;28;20183;-78
2021/12/04 12:37:26;;;;;;;8.48;3.80;;;3.30;99.90;;;;;;5014689;28;20735;-78
2021/12/04 12:39:59;;;;;;;39.33;12.73;;;3.20;99.90;;;;;;5067709;28;20192;-78
2021/12/04 12:42:30;;;;;;;25.45;7.68;;;3.20;99.90;;;;;;5069013;28;20161;-78
2021/12/04 12:45:20;;;;;;;13.30;5.35;;;3.10;99.90;;;;;;5067412;28;20169;-78
2021/12/04 12:48:03;;;;;;;16.42;5.28;;;3.00;99.90;;;;;;5067670;28;20172;-77
2021/12/04 12:50:41;;;;;;;6.03;3.35;;;3.40;99.90;;;;;;5067396;28;20196;-78
2021/12/04 12:53:20;;;;;;;4.40;3.10;;;3.20;99.90;;;;;;5067603;28;20177;-78
2021/12/04 12:55:49;;;;;;;4.63;2.63;;;2.90;99.90;;;;;;5064422;28;20625;-77
2021/12/04 12:58:22;;;;;;;4.90;2.60;;;2.80;99.90;;;;;;5030967;28;20209;-77
2021/12/04 13:11:58;;;;;;;4.82;2.88;;;2.60;99.90;;;;;;5049125;28;20180;-76
2021/12/04 13:14:31;;;;;;;4.25;2.97;;;2.60;99.90;;;;;;5030864;28;20177;-76
2021/12/04 13:17:00;;;;;;;4.93;3.35;;;2.70;99.90;;;;;;5048592;28;20201;-77
2021/12/04 13:19:27;;;;;;;8.75;3.28;;;2.60;99.90;;;;;;5048784;28;20154;-78
2021/12/04 13:21:58;;;;;;;6.68;3.03;;;2.60;99.90;;;;;;5029624;28;20183;-76
2021/12/04 13:24:27;;;;;;;3.75;2.75;;;2.70;99.90;;;;;;5048699;28;20236;-75
2021/12/04 13:26:55;;;;;;;5.55;3.17;;;2.50;99.90;;;;;;5048616;28;20219;-76
2021/12/04 13:29:26;;;;;;;10.50;3.45;;;2.50;99.90;;;;;;5030709;28;20188;-76
2021/12/04 13:31:57;;;;;;;8.93;3.10;;;2.40;99.90;;;;;;5030855;28;20180;-76
2021/12/04 13:34:29;;;;;;;7.20;3.60;;;2.40;99.90;;;;;;5048664;28;20279;-75
2021/12/04 13:36:55;;;;;;;8.18;3.72;;;2.40;99.90;;;;;;5030030;28;20213;-75
2021/12/04 13:39:22;;;;;;;4.63;3.15;;;2.40;99.90;;;;;;5048589;28;20213;-76
2021/12/04 13:41:50;;;;;;;5.00;3.40;;;2.30;99.90;;;;;;5030725;28;20177;-76
2021/12/04 13:44:19;;;;;;;5.75;3.83;;;2.30;99.90;;;;;;5030794;28;20176;-76
2021/12/04 13:46:50;;;;;;;7.28;3.08;;;2.40;99.90;;;;;;5048379;28;20181;-76
2021/12/04 13:49:30;;;;;;;6.18;3.22;;;2.30;99.90;;;;;;5048249;28;20165;-76
2021/12/04 13:52:03;;;;;;;5.57;3.60;;;2.30;99.90;;;;;;5048318;28;20530;-75
2021/12/04 13:54:31;;;;;;;7.50;3.60;;;2.40;99.90;;;;;;5048357;28;20161;-77
2021/12/04 13:56:58;;;;;;;8.05;3.70;;;2.30;99.90;;;;;;5051508;28;20220;-76
2021/12/04 13:59:25;;;;;;;10.25;3.95;;;2.30;99.90;;;;;;5052106;28;20161;-76
2021/12/04 14:01:52;;;;;;;4.07;3.25;;;2.30;99.90;;;;;;5051965;28;20244;-76
2021/12/04 14:04:19;;;;;;;8.27;3.58;;;2.20;99.90;;;;;;5051996;28;20150;-79
2021/12/04 14:07:02;;;;;;;5.90;3.65;;;2.10;99.90;;;;;;5051784;28;20165;-79
2021/12/04 14:09:37;;;;;;;6.80;3.58;;;2.00;99.90;;;;;;5021056;28;20186;-76
2021/12/04 14:12:06;;;;;;;6.45;4.43;;;1.90;99.90;;;;;;5014292;28;20177;-76
2021/12/04 14:14:34;;;;;;;10.45;5.28;;;1.90;99.90;;;;;;5014271;28;20698;-76
2021/12/04 14:17:09;;;;;;;11.25;5.95;;;1.80;99.90;;;;;;5031794;28;20232;-76
2021/12/04 14:19:36;;;;;;;11.88;5.72;;;1.80;99.90;;;;;;5031752;28;20154;-73
2021/12/04 14:22:13;;;;;;;17.70;7.22;;;1.70;99.90;;;;;;5014196;28;20185;-72
2021/12/04 14:24:43;;;;;;;11.68;4.55;;;1.60;99.90;;;;;;5014029;28;20166;-73
2021/12/04 14:27:23;;;;;;;12.85;5.05;;;1.60;99.90;;;;;;5013891;28;20209;-73
2021/12/04 14:29:56;;;;;;;7.97;4.53;;;1.60;99.90;;;;;;5033364;28;20187;-76
2021/12/04 14:32:28;;;;;;;8.95;5.05;;;1.60;99.90;;;;;;5033211;28;20185;-75
2021/12/04 14:35:15;;;;;;;5.78;4.35;;;1.60;99.90;;;;;;5033466;28;20192;-76
2021/12/04 14:37:48;;;;;;;6.15;4.72;;;1.60;99.90;;;;;;5051498;28;20213;-75
2021/12/04 14:40:32;;;;;;;7.07;4.60;;;1.60;99.90;;;;;;5051246;28;20224;-75
2021/12/04 14:42:58;;;;;;;7.88;4.00;;;1.50;99.90;;;;;;5033432;28;20158;-76
2021/12/04 14:45:28;;;;;;;9.68;4.47;;;1.50;99.90;;;;;;5033366;28;20162;-76
2021/12/04 14:48:05;;;;;;;7.40;5.43;;;1.40;99.90;;;;;;5033173;28;20166;-76
2021/12/04 14:50:34;;;;;;;9.02;4.47;;;1.40;99.90;;;;;;5050976;28;20204;-76
2021/12/04 14:53:05;;;;;;;5.97;4.72;;;1.30;99.90;;;;;;5051035;28;20165;-76
2021/12/04 14:55:34;;;;;;;7.63;4.43;;;1.20;99.90;;;;;;5050944;28;20161;-76
2021/12/04 14:58:04;;;;;;;10.32;4.85;;;1.20;99.90;;;;;;5033099;28;20205;-76
2021/12/04 15:00:36;;;;;;;9.02;4.90;;;1.10;99.90;;;;;;5050768;28;20212;-77
2021/12/04 15:03:34;;;;;;;5.70;4.13;;;1.10;99.90;;;;;;5032591;28;20185;-77
2021/12/04 15:06:03;;;;;;;5.78;3.95;;;1.00;99.90;;;;;;5025683;28;20176;-76
2021/12/04 15:08:39;;;;;;;10.23;6.40;;;0.90;99.90;;;;;;5030999;28;20181;-77
2021/12/04 15:11:21;;;;;;;8.88;5.68;;;0.90;99.90;;;;;;5032743;28;20197;-77
2021/12/04 15:13:57;;;;;;;5.95;4.80;;;0.90;99.90;;;;;;5050602;28;20233;-76
2021/12/04 15:19:26;;;;;;;10.43;5.45;;;0.60;99.90;;;;;;5050704;28;20635;-76
2021/12/04 15:21:57;;;;;;;8.20;4.05;;;0.60;99.90;;;;;;5050345;28;20251;-76
2021/12/04 15:24:28;;;;;;;8.48;4.32;;;0.60;99.90;;;;;;5030486;28;20158;-76
2021/12/04 15:27:04;;;;;;;8.60;4.32;;;0.50;99.90;;;;;;5030501;28;20193;-76
2021/12/04 15:29:32;;;;;;;8.07;4.47;;;0.40;99.90;;;;;;5025573;28;20208;-76
2021/12/04 15:32:01;;;;;;;8.10;4.32;;;0.30;99.90;;;;;;5032579;28;20165;-75
2021/12/04 15:34:46;;;;;;;5.15;3.78;;;0.30;99.90;;;;;;5028766;28;20185;-76
2021/12/04 15:37:13;;;;;;;7.90;4.85;;;0.30;99.90;;;;;;5032580;28;20266;-75
2021/12/04 15:39:45;;;;;;;6.60;4.32;;;0.20;99.90;;;;;;5032036;28;20216;-75
2021/12/04 15:53:00;;;;;;;7.38;5.57;;;0.20;99.90;;;;;;5030901;28;20178;-76
2021/12/04 15:55:50;;;;;;;7.97;5.22;;;0.10;99.90;;;;;;5031002;28;20161;-76
2021/12/04 15:58:22;;;;;;;7.20;5.25;;;0.20;99.90;;;;;;5049691;28;20197;-76
2021/12/04 16:00:54;;;;;;;10.32;6.10;;;0.30;99.90;;;;;;5049667;28;20288;-77